Weather at Holbox Airport

Public forecast

Using degrees Celsius for public forecast. Weather courtesy of forecast.io.

Closest aviation weather report (METAR) to Holbox Airport

Closest report is CancĂșn International Airport, 40.5 nm (75.0 km) SE. Retrieved 2021/01/16 13:41 UTC (6 minutes ago):

MMUN 161341Z 31010KT 7SM SCT080 SCT250 20/15 A3010 RMK 8/088

Closest aviation forecast (TAF) to Holbox Airport

Closest forecast is CancĂșn International Airport, 40.5 nm (75.0 km) SE. Retrieved 2021/01/16 12:18 UTC (1 hour ago):

TAF MMUN 161110Z 1612/1718 30008KT P6SM SCT080 BKN250 TX24/1619Z TN20/1612Z FM161600 33012KT P6SM SCT015 BKN250 FM170200 03010KT P6SM SCT015 BKN250 FM171700 04010KT P6SM SCT015 BKN250